sensor_id;sensor_type;location;lat;lon;timestamp;P1;durP1;ratioP1;P2;durP2;ratioP2
48550;SDS011;34397;51.176;6.738;2022-12-29T00:01:47;1.90;;;0.95;;
48550;SDS011;34397;51.176;6.738;2022-12-29T00:04:19;1.67;;;0.80;;
48550;SDS011;34397;51.176;6.738;2022-12-29T00:06:51;2.58;;;0.82;;
48550;SDS011;34397;51.176;6.738;2022-12-29T00:11:58;1.25;;;0.65;;
48550;SDS011;34397;51.176;6.738;2022-12-29T00:14:30;1.40;;;0.75;;
48550;SDS011;34397;51.176;6.738;2022-12-29T00:17:19;1.25;;;0.70;;
48550;SDS011;34397;51.176;6.738;2022-12-29T00:19:51;1.80;;;0.80;;
48550;SDS011;34397;51.176;6.738;2022-12-29T00:22:41;1.30;;;0.60;;
48550;SDS011;34397;51.176;6.738;2022-12-29T00:25:31;1.35;;;0.70;;
48550;SDS011;34397;51.176;6.738;2022-12-29T00:28:22;0.70;;;0.50;;
48550;SDS011;34397;51.176;6.738;2022-12-29T00:31:11;1.05;;;0.50;;
48550;SDS011;34397;51.176;6.738;2022-12-29T00:34:01;1.17;;;0.60;;
48550;SDS011;34397;51.176;6.738;2022-12-29T00:36:50;0.95;;;0.65;;
48550;SDS011;34397;51.176;6.738;2022-12-29T00:39:22;1.15;;;0.45;;
48550;SDS011;34397;51.176;6.738;2022-12-29T00:42:11;2.38;;;0.55;;
48550;SDS011;34397;51.176;6.738;2022-12-29T00:45:02;1.48;;;0.60;;
48550;SDS011;34397;51.176;6.738;2022-12-29T00:47:35;1.45;;;0.60;;
48550;SDS011;34397;51.176;6.738;2022-12-29T00:50:07;2.08;;;0.60;;
48550;SDS011;34397;51.176;6.738;2022-12-29T00:52:38;0.95;;;0.50;;
48550;SDS011;34397;51.176;6.738;2022-12-29T00:55:10;1.00;;;0.57;;
48550;SDS011;34397;51.176;6.738;2022-12-29T00:57:42;0.95;;;0.47;;
48550;SDS011;34397;51.176;6.738;2022-12-29T01:00:15;1.00;;;0.50;;
48550;SDS011;34397;51.176;6.738;2022-12-29T01:02:47;1.27;;;0.60;;
48550;SDS011;34397;51.176;6.738;2022-12-29T01:05:19;1.15;;;0.70;;
48550;SDS011;34397;51.176;6.738;2022-12-29T01:07:50;0.50;;;0.50;;
48550;SDS011;34397;51.176;6.738;2022-12-29T01:10:22;0.40;;;0.40;;
48550;SDS011;34397;51.176;6.738;2022-12-29T01:12:53;0.52;;;0.50;;
48550;SDS011;34397;51.176;6.738;2022-12-29T01:15:26;1.48;;;0.50;;
48550;SDS011;34397;51.176;6.738;2022-12-29T01:20:30;0.80;;;0.50;;
48550;SDS011;34397;51.176;6.738;2022-12-29T01:23:02;0.82;;;0.43;;
48550;SDS011;34397;51.176;6.738;2022-12-29T01:25:33;0.40;;;0.40;;
48550;SDS011;34397;51.176;6.738;2022-12-29T01:28:05;1.05;;;0.47;;
48550;SDS011;34397;51.176;6.738;2022-12-29T01:30:39;0.40;;;0.40;;
48550;SDS011;34397;51.176;6.738;2022-12-29T01:35:43;0.88;;;0.50;;
48550;SDS011;34397;51.176;6.738;2022-12-29T01:38:14;0.82;;;0.40;;
48550;SDS011;34397;51.176;6.738;2022-12-29T01:40:46;1.25;;;0.50;;
48550;SDS011;34397;51.176;6.738;2022-12-29T01:43:18;1.50;;;0.40;;
48550;SDS011;34397;51.176;6.738;2022-12-29T01:45:52;0.82;;;0.40;;
48550;SDS011;34397;51.176;6.738;2022-12-29T01:48:25;1.40;;;0.40;;
48550;SDS011;34397;51.176;6.738;2022-12-29T01:50:57;0.70;;;0.40;;
48550;SDS011;34397;51.176;6.738;2022-12-29T01:53:30;0.98;;;0.60;;
48550;SDS011;34397;51.176;6.738;2022-12-29T01:56:06;0.80;;;0.40;;
48550;SDS011;34397;51.176;6.738;2022-12-29T01:58:41;1.00;;;0.50;;
48550;SDS011;34397;51.176;6.738;2022-12-29T02:01:20;1.17;;;0.52;;
48550;SDS011;34397;51.176;6.738;2022-12-29T02:03:52;1.38;;;0.52;;
48550;SDS011;34397;51.176;6.738;2022-12-29T02:06:25;1.00;;;0.55;;
48550;SDS011;34397;51.176;6.738;2022-12-29T02:09:03;1.73;;;0.57;;
48550;SDS011;34397;51.176;6.738;2022-12-29T02:11:35;1.80;;;0.60;;
48550;SDS011;34397;51.176;6.738;2022-12-29T02:14:09;1.00;;;0.60;;
48550;SDS011;34397;51.176;6.738;2022-12-29T02:16:51;0.90;;;0.60;;
48550;SDS011;34397;51.176;6.738;2022-12-29T02:23:08;2.30;;;0.80;;
48550;SDS011;34397;51.176;6.738;2022-12-29T02:29:37;1.40;;;0.60;;
48550;SDS011;34397;51.176;6.738;2022-12-29T02:32:30;1.30;;;0.73;;
48550;SDS011;34397;51.176;6.738;2022-12-29T02:35:11;1.85;;;0.80;;
48550;SDS011;34397;51.176;6.738;2022-12-29T02:37:57;2.00;;;0.70;;
48550;SDS011;34397;51.176;6.738;2022-12-29T02:40:38;2.55;;;0.70;;
48550;SDS011;34397;51.176;6.738;2022-12-29T02:43:18;2.47;;;0.73;;
48550;SDS011;34397;51.176;6.738;2022-12-29T02:45:58;1.85;;;0.60;;
48550;SDS011;34397;51.176;6.738;2022-12-29T02:48:37;1.63;;;0.95;;
48550;SDS011;34397;51.176;6.738;2022-12-29T02:51:18;2.40;;;1.05;;
48550;SDS011;34397;51.176;6.738;2022-12-29T02:53:55;1.42;;;0.70;;
48550;SDS011;34397;51.176;6.738;2022-12-29T02:56:46;1.85;;;0.70;;
48550;SDS011;34397;51.176;6.738;2022-12-29T02:59:18;2.10;;;0.88;;
48550;SDS011;34397;51.176;6.738;2022-12-29T03:01:55;1.17;;;0.60;;
48550;SDS011;34397;51.176;6.738;2022-12-29T03:04:53;4.35;;;0.82;;
48550;SDS011;34397;51.176;6.738;2022-12-29T03:07:42;2.70;;;0.60;;
48550;SDS011;34397;51.176;6.738;2022-12-29T03:10:30;1.77;;;0.70;;
48550;SDS011;34397;51.176;6.738;2022-12-29T03:13:12;1.65;;;0.60;;
48550;SDS011;34397;51.176;6.738;2022-12-29T03:16:14;1.52;;;0.60;;
48550;SDS011;34397;51.176;6.738;2022-12-29T03:18:55;2.47;;;0.70;;
48550;SDS011;34397;51.176;6.738;2022-12-29T03:21:34;0.88;;;0.52;;
48550;SDS011;34397;51.176;6.738;2022-12-29T03:24:28;1.17;;;0.60;;
48550;SDS011;34397;51.176;6.738;2022-12-29T03:27:03;1.15;;;0.50;;
48550;SDS011;34397;51.176;6.738;2022-12-29T03:29:39;1.05;;;0.50;;
48550;SDS011;34397;51.176;6.738;2022-12-29T03:32:16;0.95;;;0.68;;
48550;SDS011;34397;51.176;6.738;2022-12-29T03:34:48;2.17;;;0.70;;
48550;SDS011;34397;51.176;6.738;2022-12-29T03:37:23;1.48;;;0.70;;
48550;SDS011;34397;51.176;6.738;2022-12-29T03:40:01;2.75;;;0.80;;
48550;SDS011;34397;51.176;6.738;2022-12-29T03:45:07;2.40;;;0.93;;
48550;SDS011;34397;51.176;6.738;2022-12-29T03:47:41;1.35;;;0.60;;
48550;SDS011;34397;51.176;6.738;2022-12-29T03:50:14;3.35;;;0.60;;
48550;SDS011;34397;51.176;6.738;2022-12-29T03:52:47;3.33;;;1.02;;
48550;SDS011;34397;51.176;6.738;2022-12-29T03:57:50;1.13;;;0.60;;
48550;SDS011;34397;51.176;6.738;2022-12-29T04:00:22;1.17;;;0.75;;
48550;SDS011;34397;51.176;6.738;2022-12-29T04:02:54;1.25;;;0.70;;
48550;SDS011;34397;51.176;6.738;2022-12-29T04:05:26;1.80;;;0.60;;
48550;SDS011;34397;51.176;6.738;2022-12-29T04:07:59;3.15;;;0.70;;
48550;SDS011;34397;51.176;6.738;2022-12-29T04:13:02;1.85;;;0.50;;
48550;SDS011;34397;51.176;6.738;2022-12-29T04:15:34;1.95;;;0.80;;
48550;SDS011;34397;51.176;6.738;2022-12-29T04:18:07;1.55;;;0.70;;
48550;SDS011;34397;51.176;6.738;2022-12-29T04:20:39;2.17;;;0.70;;
48550;SDS011;34397;51.176;6.738;2022-12-29T04:23:33;1.02;;;0.60;;
48550;SDS011;34397;51.176;6.738;2022-12-29T04:26:06;0.82;;;0.55;;
48550;SDS011;34397;51.176;6.738;2022-12-29T04:28:39;1.90;;;0.70;;
48550;SDS011;34397;51.176;6.738;2022-12-29T04:31:11;1.13;;;0.60;;
48550;SDS011;34397;51.176;6.738;2022-12-29T04:33:43;1.25;;;0.70;;
48550;SDS011;34397;51.176;6.738;2022-12-29T04:36:14;1.58;;;0.63;;
48550;SDS011;34397;51.176;6.738;2022-12-29T04:38:47;1.83;;;0.60;;
48550;SDS011;34397;51.176;6.738;2022-12-29T04:43:51;0.63;;;0.50;;
48550;SDS011;34397;51.176;6.738;2022-12-29T04:46:23;1.30;;;0.65;;
48550;SDS011;34397;51.176;6.738;2022-12-29T04:48:55;0.98;;;0.50;;
48550;SDS011;34397;51.176;6.738;2022-12-29T04:51:27;1.75;;;0.60;;
48550;SDS011;34397;51.176;6.738;2022-12-29T04:54:00;2.08;;;0.70;;
48550;SDS011;34397;51.176;6.738;2022-12-29T04:59:03;1.90;;;0.70;;
48550;SDS011;34397;51.176;6.738;2022-12-29T05:01:35;3.13;;;0.70;;
48550;SDS011;34397;51.176;6.738;2022-12-29T05:04:07;2.63;;;0.80;;
48550;SDS011;34397;51.176;6.738;2022-12-29T05:06:38;1.05;;;0.55;;
48550;SDS011;34397;51.176;6.738;2022-12-29T05:09:12;1.23;;;0.65;;
48550;SDS011;34397;51.176;6.738;2022-12-29T05:14:15;1.92;;;0.65;;
48550;SDS011;34397;51.176;6.738;2022-12-29T05:16:47;2.90;;;0.65;;
48550;SDS011;34397;51.176;6.738;2022-12-29T05:19:19;2.47;;;1.00;;
48550;SDS011;34397;51.176;6.738;2022-12-29T05:21:51;2.13;;;0.70;;
48550;SDS011;34397;51.176;6.738;2022-12-29T05:24:25;3.17;;;0.80;;
48550;SDS011;34397;51.176;6.738;2022-12-29T05:29:28;1.85;;;0.80;;
48550;SDS011;34397;51.176;6.738;2022-12-29T05:32:00;2.80;;;0.70;;
48550;SDS011;34397;51.176;6.738;2022-12-29T05:34:32;2.13;;;0.70;;
48550;SDS011;34397;51.176;6.738;2022-12-29T05:37:04;1.20;;;0.60;;
48550;SDS011;34397;51.176;6.738;2022-12-29T05:39:37;1.70;;;0.60;;
48550;SDS011;34397;51.176;6.738;2022-12-29T05:44:41;3.35;;;0.60;;
48550;SDS011;34397;51.176;6.738;2022-12-29T05:47:12;1.00;;;0.60;;
48550;SDS011;34397;51.176;6.738;2022-12-29T05:49:44;1.73;;;0.57;;
48550;SDS011;34397;51.176;6.738;2022-12-29T05:52:16;1.73;;;0.70;;
48550;SDS011;34397;51.176;6.738;2022-12-29T05:54:49;2.33;;;0.68;;
48550;SDS011;34397;51.176;6.738;2022-12-29T05:57:21;3.15;;;1.02;;
48550;SDS011;34397;51.176;6.738;2022-12-29T05:59:53;2.42;;;0.70;;
48550;SDS011;34397;51.176;6.738;2022-12-29T06:02:25;1.73;;;0.77;;
48550;SDS011;34397;51.176;6.738;2022-12-29T06:04:57;3.00;;;0.70;;
48550;SDS011;34397;51.176;6.738;2022-12-29T06:07:28;5.05;;;0.65;;
48550;SDS011;34397;51.176;6.738;2022-12-29T06:10:02;2.42;;;0.80;;
48550;SDS011;34397;51.176;6.738;2022-12-29T06:12:35;1.50;;;0.50;;
48550;SDS011;34397;51.176;6.738;2022-12-29T06:15:07;2.55;;;0.80;;
48550;SDS011;34397;51.176;6.738;2022-12-29T06:17:39;3.30;;;0.70;;
48550;SDS011;34397;51.176;6.738;2022-12-29T06:20:11;2.03;;;0.60;;
48550;SDS011;34397;51.176;6.738;2022-12-29T06:22:43;4.70;;;1.15;;
48550;SDS011;34397;51.176;6.738;2022-12-29T06:25:17;2.50;;;0.70;;
48550;SDS011;34397;51.176;6.738;2022-12-29T06:30:21;2.03;;;0.60;;
48550;SDS011;34397;51.176;6.738;2022-12-29T06:32:53;2.70;;;0.85;;
48550;SDS011;34397;51.176;6.738;2022-12-29T06:35:25;1.65;;;0.73;;
48550;SDS011;34397;51.176;6.738;2022-12-29T06:37:57;2.75;;;0.80;;
48550;SDS011;34397;51.176;6.738;2022-12-29T06:40:30;2.10;;;0.65;;
48550;SDS011;34397;51.176;6.738;2022-12-29T06:43:02;1.08;;;0.70;;
48550;SDS011;34397;51.176;6.738;2022-12-29T06:45:34;2.50;;;0.88;;
48550;SDS011;34397;51.176;6.738;2022-12-29T06:48:06;3.33;;;0.90;;
48550;SDS011;34397;51.176;6.738;2022-12-29T06:50:38;1.10;;;0.70;;
48550;SDS011;34397;51.176;6.738;2022-12-29T06:53:10;4.95;;;0.80;;
48550;SDS011;34397;51.176;6.738;2022-12-29T06:55:43;3.65;;;1.08;;
48550;SDS011;34397;51.176;6.738;2022-12-29T07:00:46;2.28;;;0.77;;
48550;SDS011;34397;51.176;6.738;2022-12-29T07:03:19;3.67;;;0.80;;
48550;SDS011;34397;51.176;6.738;2022-12-29T07:05:51;3.22;;;0.63;;
48550;SDS011;34397;51.176;6.738;2022-12-29T07:10:57;2.13;;;0.68;;
48550;SDS011;34397;51.176;6.738;2022-12-29T07:16:04;2.13;;;0.70;;
48550;SDS011;34397;51.176;6.738;2022-12-29T07:18:37;2.15;;;0.90;;
48550;SDS011;34397;51.176;6.738;2022-12-29T07:21:09;4.38;;;0.70;;
48550;SDS011;34397;51.176;6.738;2022-12-29T07:23:41;2.42;;;0.77;;
48550;SDS011;34397;51.176;6.738;2022-12-29T07:26:15;6.65;;;1.17;;
48550;SDS011;34397;51.176;6.738;2022-12-29T07:28:47;2.70;;;0.63;;
48550;SDS011;34397;51.176;6.738;2022-12-29T07:31:20;2.78;;;0.80;;
48550;SDS011;34397;51.176;6.738;2022-12-29T07:33:54;2.17;;;0.70;;
48550;SDS011;34397;51.176;6.738;2022-12-29T07:36:26;4.70;;;1.00;;
48550;SDS011;34397;51.176;6.738;2022-12-29T07:38:58;3.90;;;1.10;;
48550;SDS011;34397;51.176;6.738;2022-12-29T07:41:31;3.35;;;0.80;;
48550;SDS011;34397;51.176;6.738;2022-12-29T07:44:04;3.08;;;0.70;;
48550;SDS011;34397;51.176;6.738;2022-12-29T07:46:36;3.38;;;1.00;;
48550;SDS011;34397;51.176;6.738;2022-12-29T07:49:08;3.22;;;0.90;;
48550;SDS011;34397;51.176;6.738;2022-12-29T07:51:39;4.13;;;0.90;;
48550;SDS011;34397;51.176;6.738;2022-12-29T07:54:11;3.80;;;1.13;;
48550;SDS011;34397;51.176;6.738;2022-12-29T07:56:45;4.00;;;0.68;;
48550;SDS011;34397;51.176;6.738;2022-12-29T07:59:17;2.92;;;1.10;;
48550;SDS011;34397;51.176;6.738;2022-12-29T08:01:49;3.13;;;0.65;;
48550;SDS011;34397;51.176;6.738;2022-12-29T08:04:21;2.55;;;0.85;;
48550;SDS011;34397;51.176;6.738;2022-12-29T08:06:53;2.40;;;0.70;;
48550;SDS011;34397;51.176;6.738;2022-12-29T08:09:25;4.18;;;0.75;;
48550;SDS011;34397;51.176;6.738;2022-12-29T08:11:58;2.53;;;0.70;;
48550;SDS011;34397;51.176;6.738;2022-12-29T08:17:01;4.07;;;0.70;;
48550;SDS011;34397;51.176;6.738;2022-12-29T08:19:33;2.00;;;0.80;;
48550;SDS011;34397;51.176;6.738;2022-12-29T08:22:05;2.88;;;0.90;;
48550;SDS011;34397;51.176;6.738;2022-12-29T08:24:37;3.65;;;1.33;;
48550;SDS011;34397;51.176;6.738;2022-12-29T08:27:10;3.35;;;0.95;;
48550;SDS011;34397;51.176;6.738;2022-12-29T08:32:14;3.10;;;0.90;;
48550;SDS011;34397;51.176;6.738;2022-12-29T08:34:46;2.92;;;0.77;;
48550;SDS011;34397;51.176;6.738;2022-12-29T08:37:18;6.32;;;1.58;;
48550;SDS011;34397;51.176;6.738;2022-12-29T08:39:50;4.28;;;1.08;;
48550;SDS011;34397;51.176;6.738;2022-12-29T08:42:23;4.20;;;1.00;;
48550;SDS011;34397;51.176;6.738;2022-12-29T08:44:59;4.15;;;0.80;;
48550;SDS011;34397;51.176;6.738;2022-12-29T08:47:31;4.83;;;1.37;;
48550;SDS011;34397;51.176;6.738;2022-12-29T08:50:03;4.30;;;0.90;;
48550;SDS011;34397;51.176;6.738;2022-12-29T08:52:36;4.97;;;1.20;;
48550;SDS011;34397;51.176;6.738;2022-12-29T08:55:08;2.85;;;1.13;;
48550;SDS011;34397;51.176;6.738;2022-12-29T08:57:41;3.50;;;0.85;;
48550;SDS011;34397;51.176;6.738;2022-12-29T09:02:46;2.55;;;0.95;;
48550;SDS011;34397;51.176;6.738;2022-12-29T09:05:17;2.72;;;0.73;;
48550;SDS011;34397;51.176;6.738;2022-12-29T09:07:49;5.30;;;1.15;;
48550;SDS011;34397;51.176;6.738;2022-12-29T09:10:21;5.50;;;1.30;;
48550;SDS011;34397;51.176;6.738;2022-12-29T09:12:54;6.43;;;1.40;;
48550;SDS011;34397;51.176;6.738;2022-12-29T09:17:58;8.07;;;1.30;;
48550;SDS011;34397;51.176;6.738;2022-12-29T09:20:30;6.25;;;1.17;;
48550;SDS011;34397;51.176;6.738;2022-12-29T09:23:01;9.30;;;1.17;;
48550;SDS011;34397;51.176;6.738;2022-12-29T09:25:33;4.60;;;1.00;;
48550;SDS011;34397;51.176;6.738;2022-12-29T09:28:06;3.08;;;0.80;;
48550;SDS011;34397;51.176;6.738;2022-12-29T09:33:10;3.92;;;1.05;;
48550;SDS011;34397;51.176;6.738;2022-12-29T09:35:42;5.07;;;1.10;;
48550;SDS011;34397;51.176;6.738;2022-12-29T09:38:14;2.30;;;0.77;;
48550;SDS011;34397;51.176;6.738;2022-12-29T09:40:49;5.38;;;1.10;;
48550;SDS011;34397;51.176;6.738;2022-12-29T09:46:36;3.92;;;1.00;;
48550;SDS011;34397;51.176;6.738;2022-12-29T09:49:15;5.22;;;1.08;;
48550;SDS011;34397;51.176;6.738;2022-12-29T09:51:55;3.70;;;0.98;;
48550;SDS011;34397;51.176;6.738;2022-12-29T09:54:36;4.45;;;1.05;;
48550;SDS011;34397;51.176;6.738;2022-12-29T09:57:16;3.13;;;0.90;;
48550;SDS011;34397;51.176;6.738;2022-12-29T09:59:54;3.85;;;1.02;;
48550;SDS011;34397;51.176;6.738;2022-12-29T10:02:37;6.63;;;1.35;;
48550;SDS011;34397;51.176;6.738;2022-12-29T10:05:20;6.30;;;1.25;;
48550;SDS011;34397;51.176;6.738;2022-12-29T10:08:13;4.32;;;0.90;;
48550;SDS011;34397;51.176;6.738;2022-12-29T10:10:59;6.35;;;1.40;;
48550;SDS011;34397;51.176;6.738;2022-12-29T10:13:43;5.97;;;1.35;;
48550;SDS011;34397;51.176;6.738;2022-12-29T10:16:41;6.43;;;1.10;;
48550;SDS011;34397;51.176;6.738;2022-12-29T10:19:22;4.72;;;1.52;;
48550;SDS011;34397;51.176;6.738;2022-12-29T10:22:19;4.47;;;1.35;;
48550;SDS011;34397;51.176;6.738;2022-12-29T10:25:12;5.97;;;1.10;;
48550;SDS011;34397;51.176;6.738;2022-12-29T10:27:48;5.68;;;1.00;;
48550;SDS011;34397;51.176;6.738;2022-12-29T10:30:21;13.50;;;1.33;;
48550;SDS011;34397;51.176;6.738;2022-12-29T10:32:56;4.18;;;1.15;;
48550;SDS011;34397;51.176;6.738;2022-12-29T10:35:32;5.43;;;1.25;;
48550;SDS011;34397;51.176;6.738;2022-12-29T10:38:11;3.97;;;1.05;;
48550;SDS011;34397;51.176;6.738;2022-12-29T10:40:52;3.50;;;1.10;;
48550;SDS011;34397;51.176;6.738;2022-12-29T10:43:29;7.03;;;1.48;;
48550;SDS011;34397;51.176;6.738;2022-12-29T10:46:05;6.22;;;1.25;;
48550;SDS011;34397;51.176;6.738;2022-12-29T10:48:43;5.45;;;1.40;;
48550;SDS011;34397;51.176;6.738;2022-12-29T10:51:18;4.28;;;1.00;;
48550;SDS011;34397;51.176;6.738;2022-12-29T10:53:55;3.92;;;1.15;;
48550;SDS011;34397;51.176;6.738;2022-12-29T10:56:34;4.38;;;0.90;;
48550;SDS011;34397;51.176;6.738;2022-12-29T10:59:12;6.38;;;1.08;;
48550;SDS011;34397;51.176;6.738;2022-12-29T11:01:50;6.55;;;1.38;;
48550;SDS011;34397;51.176;6.738;2022-12-29T11:04:38;5.72;;;1.67;;
48550;SDS011;34397;51.176;6.738;2022-12-29T11:07:19;5.85;;;1.08;;
48550;SDS011;34397;51.176;6.738;2022-12-29T11:09:52;5.40;;;1.30;;
48550;SDS011;34397;51.176;6.738;2022-12-29T11:12:25;6.13;;;1.50;;
48550;SDS011;34397;51.176;6.738;2022-12-29T11:15:11;7.85;;;1.33;;
48550;SDS011;34397;51.176;6.738;2022-12-29T11:17:47;4.45;;;1.23;;
48550;SDS011;34397;51.176;6.738;2022-12-29T11:20:29;11.05;;;1.55;;
48550;SDS011;34397;51.176;6.738;2022-12-29T11:23:05;6.40;;;1.30;;
48550;SDS011;34397;51.176;6.738;2022-12-29T11:26:05;5.90;;;1.30;;
48550;SDS011;34397;51.176;6.738;2022-12-29T11:28:45;5.97;;;1.10;;
48550;SDS011;34397;51.176;6.738;2022-12-29T11:31:21;7.00;;;1.83;;
48550;SDS011;34397;51.176;6.738;2022-12-29T11:33:53;5.00;;;1.45;;
48550;SDS011;34397;51.176;6.738;2022-12-29T11:36:26;6.45;;;1.50;;
48550;SDS011;34397;51.176;6.738;2022-12-29T11:38:59;6.65;;;1.80;;
48550;SDS011;34397;51.176;6.738;2022-12-29T11:41:32;6.43;;;1.38;;
48550;SDS011;34397;51.176;6.738;2022-12-29T11:44:04;9.60;;;2.28;;
48550;SDS011;34397;51.176;6.738;2022-12-29T11:46:37;12.07;;;1.77;;
48550;SDS011;34397;51.176;6.738;2022-12-29T11:49:10;7.53;;;1.08;;
48550;SDS011;34397;51.176;6.738;2022-12-29T11:51:46;7.32;;;1.27;;
48550;SDS011;34397;51.176;6.738;2022-12-29T11:54:21;9.27;;;1.35;;
48550;SDS011;34397;51.176;6.738;2022-12-29T11:56:56;6.47;;;1.88;;
48550;SDS011;34397;51.176;6.738;2022-12-29T11:59:41;4.40;;;1.13;;
48550;SDS011;34397;51.176;6.738;2022-12-29T12:05:19;8.93;;;1.13;;
48550;SDS011;34397;51.176;6.738;2022-12-29T12:08:04;7.68;;;1.70;;
48550;SDS011;34397;51.176;6.738;2022-12-29T12:10:46;5.93;;;1.23;;
48550;SDS011;34397;51.176;6.738;2022-12-29T12:13:22;6.28;;;1.40;;
48550;SDS011;34397;51.176;6.738;2022-12-29T12:16:02;6.35;;;1.08;;
48550;SDS011;34397;51.176;6.738;2022-12-29T12:18:40;5.43;;;1.08;;
48550;SDS011;34397;51.176;6.738;2022-12-29T12:21:20;6.95;;;1.30;;
48550;SDS011;34397;51.176;6.738;2022-12-29T12:24:00;5.57;;;1.40;;
48550;SDS011;34397;51.176;6.738;2022-12-29T12:26:53;14.05;;;1.63;;
48550;SDS011;34397;51.176;6.738;2022-12-29T12:29:33;6.05;;;1.55;;
48550;SDS011;34397;51.176;6.738;2022-12-29T12:32:11;9.00;;;1.73;;
48550;SDS011;34397;51.176;6.738;2022-12-29T12:34:49;7.18;;;1.38;;
48550;SDS011;34397;51.176;6.738;2022-12-29T12:37:32;10.03;;;1.83;;
48550;SDS011;34397;51.176;6.738;2022-12-29T12:40:37;6.32;;;1.45;;
48550;SDS011;34397;51.176;6.738;2022-12-29T12:43:35;6.03;;;1.25;;
48550;SDS011;34397;51.176;6.738;2022-12-29T12:46:19;6.50;;;1.40;;
48550;SDS011;34397;51.176;6.738;2022-12-29T12:49:23;9.68;;;1.38;;
48550;SDS011;34397;51.176;6.738;2022-12-29T12:55:03;13.02;;;2.17;;
48550;SDS011;34397;51.176;6.738;2022-12-29T12:58:09;11.52;;;1.50;;
48550;SDS011;34397;51.176;6.738;2022-12-29T13:00:51;6.40;;;1.35;;
48550;SDS011;34397;51.176;6.738;2022-12-29T13:03:42;6.00;;;1.40;;
48550;SDS011;34397;51.176;6.738;2022-12-29T13:06:26;4.18;;;1.15;;
48550;SDS011;34397;51.176;6.738;2022-12-29T13:09:15;7.03;;;1.17;;
48550;SDS011;34397;51.176;6.738;2022-12-29T13:12:06;5.32;;;1.40;;
48550;SDS011;34397;51.176;6.738;2022-12-29T13:14:53;5.40;;;1.20;;
48550;SDS011;34397;51.176;6.738;2022-12-29T13:17:41;4.05;;;0.93;;
48550;SDS011;34397;51.176;6.738;2022-12-29T13:20:20;11.13;;;1.42;;
48550;SDS011;34397;51.176;6.738;2022-12-29T13:23:13;3.55;;;1.10;;
48550;SDS011;34397;51.176;6.738;2022-12-29T13:25:56;4.57;;;1.05;;
48550;SDS011;34397;51.176;6.738;2022-12-29T13:28:42;7.45;;;1.13;;
48550;SDS011;34397;51.176;6.738;2022-12-29T13:31:25;4.95;;;0.82;;
48550;SDS011;34397;51.176;6.738;2022-12-29T13:34:05;5.57;;;0.88;;
48550;SDS011;34397;51.176;6.738;2022-12-29T13:36:47;8.57;;;1.20;;
48550;SDS011;34397;51.176;6.738;2022-12-29T13:39:25;5.57;;;1.00;;
48550;SDS011;34397;51.176;6.738;2022-12-29T13:42:03;8.43;;;1.60;;
48550;SDS011;34397;51.176;6.738;2022-12-29T13:47:15;2.17;;;0.80;;
48550;SDS011;34397;51.176;6.738;2022-12-29T13:49:55;7.45;;;1.60;;
48550;SDS011;34397;51.176;6.738;2022-12-29T13:52:32;7.65;;;1.30;;
48550;SDS011;34397;51.176;6.738;2022-12-29T13:55:17;12.10;;;1.88;;
48550;SDS011;34397;51.176;6.738;2022-12-29T13:57:58;6.78;;;1.30;;
48550;SDS011;34397;51.176;6.738;2022-12-29T14:00:38;6.55;;;1.35;;
48550;SDS011;34397;51.176;6.738;2022-12-29T14:03:23;4.90;;;0.90;;
48550;SDS011;34397;51.176;6.738;2022-12-29T14:06:22;5.75;;;1.10;;
48550;SDS011;34397;51.176;6.738;2022-12-29T14:08:57;9.75;;;1.48;;
48550;SDS011;34397;51.176;6.738;2022-12-29T14:11:32;6.97;;;1.33;;
48550;SDS011;34397;51.176;6.738;2022-12-29T14:14:10;4.90;;;1.00;;
48550;SDS011;34397;51.176;6.738;2022-12-29T14:16:46;8.00;;;1.65;;
48550;SDS011;34397;51.176;6.738;2022-12-29T14:19:21;4.40;;;1.38;;
48550;SDS011;34397;51.176;6.738;2022-12-29T14:21:59;4.85;;;1.10;;
48550;SDS011;34397;51.176;6.738;2022-12-29T14:24:41;4.75;;;1.05;;
48550;SDS011;34397;51.176;6.738;2022-12-29T14:33:32;6.80;;;1.00;;
48550;SDS011;34397;51.176;6.738;2022-12-29T14:36:21;4.03;;;0.73;;
48550;SDS011;34397;51.176;6.738;2022-12-29T14:38:56;7.93;;;1.05;;
48550;SDS011;34397;51.176;6.738;2022-12-29T14:41:29;5.22;;;1.35;;
48550;SDS011;34397;51.176;6.738;2022-12-29T14:44:10;6.43;;;1.40;;
48550;SDS011;34397;51.176;6.738;2022-12-29T14:46:54;7.03;;;1.40;;
48550;SDS011;34397;51.176;6.738;2022-12-29T14:49:31;5.00;;;1.30;;
48550;SDS011;34397;51.176;6.738;2022-12-29T14:52:14;6.53;;;1.73;;
48550;SDS011;34397;51.176;6.738;2022-12-29T14:54:51;4.70;;;1.30;;
48550;SDS011;34397;51.176;6.738;2022-12-29T14:57:29;5.40;;;1.33;;
48550;SDS011;34397;51.176;6.738;2022-12-29T15:00:08;4.78;;;1.23;;
48550;SDS011;34397;51.176;6.738;2022-12-29T15:02:49;10.68;;;1.15;;
48550;SDS011;34397;51.176;6.738;2022-12-29T15:05:34;6.97;;;1.30;;
48550;SDS011;34397;51.176;6.738;2022-12-29T15:08:12;3.25;;;0.90;;
48550;SDS011;34397;51.176;6.738;2022-12-29T15:10:51;6.38;;;1.20;;
48550;SDS011;34397;51.176;6.738;2022-12-29T15:13:32;6.03;;;1.48;;
48550;SDS011;34397;51.176;6.738;2022-12-29T15:16:17;7.18;;;1.40;;
48550;SDS011;34397;51.176;6.738;2022-12-29T15:18:54;4.75;;;1.00;;
48550;SDS011;34397;51.176;6.738;2022-12-29T15:21:28;8.23;;;1.88;;
48550;SDS011;34397;51.176;6.738;2022-12-29T15:24:03;5.07;;;1.40;;
48550;SDS011;34397;51.176;6.738;2022-12-29T15:26:36;10.18;;;1.60;;
48550;SDS011;34397;51.176;6.738;2022-12-29T15:32:09;7.95;;;1.50;;
48550;SDS011;34397;51.176;6.738;2022-12-29T15:34:50;6.90;;;1.67;;
48550;SDS011;34397;51.176;6.738;2022-12-29T15:37:25;5.97;;;1.60;;
48550;SDS011;34397;51.176;6.738;2022-12-29T15:39:59;5.65;;;1.20;;
48550;SDS011;34397;51.176;6.738;2022-12-29T15:42:35;4.75;;;1.23;;
48550;SDS011;34397;51.176;6.738;2022-12-29T15:45:27;9.30;;;1.35;;
48550;SDS011;34397;51.176;6.738;2022-12-29T15:48:04;7.05;;;1.17;;
48550;SDS011;34397;51.176;6.738;2022-12-29T15:50:44;4.90;;;1.20;;
48550;SDS011;34397;51.176;6.738;2022-12-29T15:53:19;4.68;;;1.00;;
48550;SDS011;34397;51.176;6.738;2022-12-29T15:55:59;6.35;;;1.00;;
48550;SDS011;34397;51.176;6.738;2022-12-29T15:58:39;8.18;;;1.15;;
48550;SDS011;34397;51.176;6.738;2022-12-29T16:01:17;6.10;;;1.63;;
48550;SDS011;34397;51.176;6.738;2022-12-29T16:04:03;8.27;;;1.30;;
48550;SDS011;34397;51.176;6.738;2022-12-29T16:06:38;4.45;;;1.30;;
48550;SDS011;34397;51.176;6.738;2022-12-29T16:09:17;3.85;;;1.13;;
48550;SDS011;34397;51.176;6.738;2022-12-29T16:12:01;3.97;;;1.02;;
48550;SDS011;34397;51.176;6.738;2022-12-29T16:14:37;4.82;;;1.13;;
48550;SDS011;34397;51.176;6.738;2022-12-29T16:17:14;3.85;;;1.50;;
48550;SDS011;34397;51.176;6.738;2022-12-29T16:19:50;4.93;;;1.00;;
48550;SDS011;34397;51.176;6.738;2022-12-29T16:22:27;6.75;;;1.60;;
48550;SDS011;34397;51.176;6.738;2022-12-29T16:25:04;5.05;;;1.63;;
48550;SDS011;34397;51.176;6.738;2022-12-29T16:27:51;4.13;;;1.30;;
48550;SDS011;34397;51.176;6.738;2022-12-29T16:30:24;4.53;;;1.00;;
48550;SDS011;34397;51.176;6.738;2022-12-29T16:33:00;5.60;;;1.50;;
48550;SDS011;34397;51.176;6.738;2022-12-29T16:35:39;8.38;;;1.77;;
48550;SDS011;34397;51.176;6.738;2022-12-29T16:38:18;6.88;;;1.52;;
48550;SDS011;34397;51.176;6.738;2022-12-29T16:40:53;6.35;;;1.77;;
48550;SDS011;34397;51.176;6.738;2022-12-29T16:43:26;6.97;;;1.30;;
48550;SDS011;34397;51.176;6.738;2022-12-29T16:48:56;4.72;;;1.25;;
48550;SDS011;34397;51.176;6.738;2022-12-29T16:51:29;7.10;;;1.80;;
48550;SDS011;34397;51.176;6.738;2022-12-29T16:54:03;8.05;;;1.30;;
48550;SDS011;34397;51.176;6.738;2022-12-29T16:56:37;6.05;;;1.90;;
48550;SDS011;34397;51.176;6.738;2022-12-29T16:59:19;6.72;;;1.38;;
48550;SDS011;34397;51.176;6.738;2022-12-29T17:01:59;7.70;;;1.30;;
48550;SDS011;34397;51.176;6.738;2022-12-29T17:04:36;7.30;;;1.60;;
48550;SDS011;34397;51.176;6.738;2022-12-29T17:07:09;10.77;;;1.63;;
48550;SDS011;34397;51.176;6.738;2022-12-29T17:09:48;6.00;;;1.50;;